createdAt,value
2018-04-02T00:00:37.982Z,18.9
2018-04-02T00:01:28.324Z,18.9
2018-04-02T00:02:17.875Z,18.9
2018-04-02T00:03:08.909Z,18.9
2018-04-02T00:03:58.704Z,18.9
2018-04-02T00:04:49.034Z,18.9
2018-04-02T00:05:38.197Z,18.9
2018-04-02T00:06:29.269Z,18.9
2018-04-02T00:07:18.238Z,18.9
2018-04-02T00:08:09.568Z,18.9
2018-04-02T00:08:59.167Z,18.9
2018-04-02T00:09:49.200Z,19
2018-04-02T00:10:39.852Z,18.9
2018-04-02T00:11:29.890Z,18.9
2018-04-02T00:12:19.314Z,18.9
2018-04-02T00:13:09.681Z,19
2018-04-02T00:14:00.003Z,18.9
2018-04-02T00:14:49.472Z,18.9
2018-04-02T00:15:39.858Z,18.9
2018-04-02T00:16:30.713Z,18.9
2018-04-02T00:17:20.043Z,18.9
2018-04-02T00:18:09.888Z,18.9
2018-04-02T00:18:59.592Z,18.9
2018-04-02T00:19:50.454Z,18.9
2018-04-02T00:20:39.930Z,18.9
2018-04-02T00:21:29.957Z,19
2018-04-02T00:22:20.525Z,18.9
2018-04-02T00:23:10.473Z,19
2018-04-02T00:24:00.520Z,19
2018-04-02T00:24:49.805Z,19
2018-04-02T00:25:40.386Z,19
2018-04-02T00:26:30.125Z,19
2018-04-02T00:27:20.391Z,19
2018-04-02T00:28:10.483Z,19
2018-04-02T00:29:00.585Z,19
2018-04-02T00:29:50.885Z,19
2018-04-02T00:30:40.803Z,19
2018-04-02T00:31:31.381Z,19
2018-04-02T00:32:20.558Z,19
2018-04-02T00:33:10.617Z,19
2018-04-02T00:34:01.461Z,19
2018-04-02T00:34:51.042Z,19
2018-04-02T00:35:41.560Z,19
2018-04-02T00:36:31.905Z,19
2018-04-02T00:37:21.947Z,19
2018-04-02T00:38:12.002Z,19
2018-04-02T00:39:02.380Z,19
2018-04-02T00:39:52.181Z,19
2018-04-02T00:40:41.632Z,19.1
2018-04-02T00:41:31.494Z,19.1
2018-04-02T00:42:21.619Z,19.1
2018-04-02T00:43:11.924Z,19.1
2018-04-02T00:44:01.996Z,19.1
2018-04-02T00:44:52.027Z,19.1
2018-04-02T00:45:41.896Z,19.1
2018-04-02T00:46:32.493Z,19.1
2018-04-02T00:47:22.988Z,19.1
2018-04-02T00:48:12.774Z,19.1
2018-04-02T00:49:02.854Z,19.1
2018-04-02T00:49:52.583Z,19.1
2018-04-02T00:50:43.192Z,19.1
2018-04-02T00:51:32.430Z,19.1
2018-04-02T00:52:22.751Z,19.1
2018-04-02T00:53:13.126Z,19.1
2018-04-02T00:54:03.481Z,19.1
2018-04-02T00:54:53.520Z,19.1
2018-04-02T00:55:42.777Z,19.1
2018-04-02T00:56:33.623Z,19.1
2018-04-02T00:57:22.224Z,19.1
2018-04-02T00:58:13.103Z,19.1
2018-04-02T00:59:03.006Z,19.1
2018-04-02T00:59:53.130Z,19.1
2018-04-02T01:00:42.622Z,19.1
2018-04-02T01:01:33.432Z,19.1
2018-04-02T01:02:23.212Z,19.1
2018-04-02T01:03:13.011Z,19.1
2018-04-02T01:04:02.650Z,19.1
2018-04-02T01:04:53.695Z,19.1
2018-04-02T01:05:43.435Z,19.1
2018-04-02T01:06:33.321Z,19.1
2018-04-02T01:07:23.155Z,19.1
2018-04-02T01:08:13.929Z,19.1
2018-04-02T01:09:03.230Z,19.1
2018-04-02T01:09:53.689Z,19.1
2018-04-02T01:10:44.025Z,19.1
2018-04-02T01:11:33.507Z,19.1
2018-04-02T01:12:24.595Z,19.1
2018-04-02T01:13:13.584Z,19.1
2018-04-02T01:14:03.879Z,19.1
2018-04-02T01:14:54.522Z,19.1
2018-04-02T01:15:44.774Z,19.1
2018-04-02T01:16:33.960Z,19.1
2018-04-02T01:17:24.050Z,19.1
2018-04-02T01:18:14.965Z,19.1
2018-04-02T01:19:04.240Z,19.1
2018-04-02T01:19:54.591Z,19.1
2018-04-02T01:20:43.827Z,19.2
2018-04-02T01:21:34.343Z,19.2
2018-04-02T01:22:25.006Z,19.1
2018-04-02T01:23:14.253Z,19.1
2018-04-02T01:24:04.113Z,19.2
2018-04-02T01:24:54.773Z,19.1
2018-04-02T01:25:44.932Z,19.2
2018-04-02T01:26:34.566Z,19.1
2018-04-02T01:27:25.059Z,19.2
2018-04-02T01:28:14.416Z,19.1
2018-04-02T01:29:04.902Z,19.1
2018-04-02T01:29:55.211Z,19.2
2018-04-02T01:30:45.651Z,19.2
2018-04-02T01:31:34.928Z,19.1
2018-04-02T01:32:25.736Z,19.1
2018-04-02T01:33:15.048Z,19.2
2018-04-02T01:34:05.140Z,19.2
2018-04-02T01:34:56.163Z,19.1
2018-04-02T01:35:45.631Z,19.2
2018-04-02T01:36:36.048Z,19.2
2018-04-02T01:37:25.778Z,19.2
2018-04-02T01:38:15.273Z,19.2
2018-04-02T01:39:05.883Z,19.2
2018-04-02T01:39:55.649Z,19.2
2018-04-02T01:40:45.875Z,19.2
2018-04-02T01:41:36.221Z,19.2
2018-04-02T01:42:26.693Z,19.2
2018-04-02T01:43:15.615Z,19.2
2018-04-02T01:44:06.063Z,19.2
2018-04-02T01:44:55.827Z,19.2
2018-04-02T01:45:45.786Z,19.2
2018-04-02T01:46:36.233Z,19.2
2018-04-02T01:47:26.033Z,19.2
2018-04-02T01:48:16.833Z,19.2
2018-04-02T01:49:07.186Z,19.2
2018-04-02T01:49:57.510Z,19.2
2018-04-02T01:50:47.665Z,19.2
2018-04-02T01:51:37.117Z,19.3
2018-04-02T01:52:27.424Z,19.3
2018-04-02T01:53:16.912Z,19.2
2018-04-02T01:54:07.325Z,19.2
2018-04-02T01:54:56.877Z,19.2
2018-04-02T01:55:47.430Z,19.3
2018-04-02T01:56:37.470Z,19.3
2018-04-02T01:57:25.975Z,19.2
2018-04-02T01:58:17.587Z,19.3
2018-04-02T01:59:06.179Z,19.2
2018-04-02T01:59:57.327Z,19.2
2018-04-02T02:00:46.580Z,19.2
2018-04-02T02:01:37.364Z,19.3
2018-04-02T02:02:27.505Z,19.3
2018-04-02T02:03:17.634Z,19.3
2018-04-02T02:04:07.238Z,19.3
2018-04-02T02:04:57.532Z,19.3
2018-04-02T02:05:47.362Z,19.3
2018-04-02T02:06:38.304Z,19.2
2018-04-02T02:07:27.569Z,19.3
2018-04-02T02:08:18.020Z,19.3
2018-04-02T02:09:07.674Z,19.3
2018-04-02T02:09:57.247Z,19.3
2018-04-02T02:10:48.499Z,19.3
2018-04-02T02:11:37.302Z,19.3
2018-04-02T02:12:28.161Z,19.3
2018-04-02T02:13:18.192Z,19.3
2018-04-02T02:14:07.778Z,19.3
2018-04-02T02:14:57.737Z,19.3
2018-04-02T02:15:47.983Z,19.3
2018-04-02T02:16:38.151Z,19.3
2018-04-02T02:17:27.905Z,19.3
2018-04-02T02:18:17.791Z,19.3
2018-04-02T02:19:07.963Z,19.3
2018-04-02T02:19:58.477Z,19.3
2018-04-02T02:20:48.937Z,19.3
2018-04-02T02:21:38.885Z,19.3
2018-04-02T02:22:28.978Z,19.3
2018-04-02T02:23:19.226Z,19.3
2018-04-02T02:24:08.501Z,19.3
2018-04-02T02:24:59.562Z,19.3
2018-04-02T02:25:49.301Z,19.3
2018-04-02T02:26:38.890Z,19.3
2018-04-02T02:27:28.878Z,19.3
2018-04-02T02:28:19.558Z,19.3
2018-04-02T02:29:08.675Z,19.3
2018-04-02T02:29:58.921Z,19.3
2018-04-02T02:30:49.289Z,19.3
2018-04-02T02:31:39.464Z,19.3
2018-04-02T02:32:29.883Z,19.3
2018-04-02T02:33:19.728Z,19.3
2018-04-02T02:34:10.027Z,19.3
2018-04-02T02:34:59.337Z,19.3
2018-04-02T02:35:49.179Z,19.3
2018-04-02T02:36:39.343Z,19.3
2018-04-02T02:37:30.248Z,19.3
2018-04-02T02:38:20.797Z,19.3
2018-04-02T02:39:09.699Z,19.3
2018-04-02T02:40:00.790Z,19.3
2018-04-02T02:40:50.127Z,19.3
2018-04-02T02:41:40.385Z,19.3
2018-04-02T02:42:30.223Z,19.3
2018-04-02T02:43:20.097Z,19.3
2018-04-02T02:44:10.419Z,19.3
2018-04-02T02:45:01.118Z,19.3
2018-04-02T02:45:50.659Z,19.3
2018-04-02T02:46:40.254Z,19.3
2018-04-02T02:47:31.765Z,19.3
2018-04-02T02:48:20.640Z,19.3
2018-04-02T02:49:10.837Z,19.3
2018-04-02T02:50:01.152Z,19.3
2018-04-02T02:50:52.008Z,19.3
2018-04-02T02:51:41.479Z,19.3
2018-04-02T02:52:32.144Z,19.3
2018-04-02T02:53:21.297Z,19.3
2018-04-02T02:54:12.241Z,19.3
2018-04-02T02:55:01.440Z,19.3
2018-04-02T02:55:52.043Z,19.4
2018-04-02T02:56:42.383Z,19.4
2018-04-02T02:57:32.449Z,19.3
2018-04-02T02:58:21.655Z,19.4
2018-04-02T02:59:12.313Z,19.4
2018-04-02T03:00:02.099Z,19.4
2018-04-02T03:00:52.697Z,19.4
2018-04-02T03:01:42.787Z,19.4
2018-04-02T03:02:32.328Z,19.4
2018-04-02T03:03:23.229Z,19.4
2018-04-02T03:04:12.359Z,19.4
2018-04-02T03:05:02.221Z,19.4
2018-04-02T03:05:51.548Z,19.4
2018-04-02T03:06:42.322Z,19.4
2018-04-02T03:07:32.731Z,19.4
2018-04-02T03:08:22.025Z,19.4
2018-04-02T03:09:12.614Z,19.4
2018-04-02T03:10:02.610Z,19.3
2018-04-02T03:10:51.105Z,19.4
2018-04-02T03:11:42.258Z,19.4
2018-04-02T03:12:32.225Z,19.4
2018-04-02T03:13:22.773Z,19.4
2018-04-02T03:14:12.230Z,19.4
2018-04-02T03:15:02.713Z,19.4
2018-04-02T03:15:52.877Z,19.4
2018-04-02T03:16:43.202Z,19.4
2018-04-02T03:17:32.277Z,19.4
2018-04-02T03:18:22.450Z,19.4
2018-04-02T03:19:12.344Z,19.4
2018-04-02T03:20:02.865Z,19.4
2018-04-02T03:20:52.528Z,19.4
2018-04-02T03:21:42.492Z,19.4
2018-04-02T03:22:33.529Z,19.4
2018-04-02T03:23:23.147Z,19.4
2018-04-02T03:24:14.126Z,19.4
2018-04-02T03:25:03.495Z,19.4
2018-04-02T03:25:53.361Z,19.4
2018-04-02T03:26:44.125Z,19.4
2018-04-02T03:27:33.866Z,19.4
2018-04-02T03:28:23.392Z,19.4
2018-04-02T03:29:13.811Z,19.4
2018-04-02T03:30:02.838Z,19.4
2018-04-02T03:30:53.606Z,19.4
2018-04-02T03:31:43.849Z,19.4
2018-04-02T03:32:33.885Z,19.4
2018-04-02T03:33:23.451Z,19.4
2018-04-02T03:34:13.429Z,19.4
2018-04-02T03:35:04.649Z,19.4
2018-04-02T03:35:54.453Z,19.4
2018-04-02T03:36:44.869Z,19.4
2018-04-02T03:37:34.508Z,19.4
2018-04-02T03:38:23.989Z,19.4
2018-04-02T03:39:14.326Z,19.4
2018-04-02T03:40:05.309Z,19.4
2018-04-02T03:40:54.884Z,19.4
2018-04-02T03:41:44.526Z,19.4
2018-04-02T03:42:34.400Z,19.4
2018-04-02T03:43:24.960Z,19.4
2018-04-02T03:44:15.048Z,19.4
2018-04-02T03:45:04.854Z,19.4
2018-04-02T03:45:54.571Z,19.4
2018-04-02T03:46:44.590Z,19.4
2018-04-02T03:47:34.948Z,19.4
2018-04-02T03:48:25.856Z,19.4
2018-04-02T03:49:15.650Z,19.4
2018-04-02T03:50:05.716Z,19.4
2018-04-02T03:50:55.763Z,19.4
2018-04-02T03:51:45.844Z,19.5
2018-04-02T03:52:36.179Z,19.5
2018-04-02T03:53:25.942Z,19.4
2018-04-02T03:54:16.302Z,19.4
2018-04-02T03:55:06.102Z,19.4
2018-04-02T03:55:56.139Z,19.5
2018-04-02T03:56:46.483Z,19.5
2018-04-02T03:57:36.840Z,19.5
2018-04-02T03:58:26.647Z,19.5
2018-04-02T03:59:15.812Z,19.5
2018-04-02T04:00:07.013Z,19.5
2018-04-02T04:00:56.200Z,19.5
2018-04-02T04:01:47.182Z,19.5
2018-04-02T04:02:36.645Z,19.5
2018-04-02T04:03:26.977Z,19.5
2018-04-02T04:04:16.729Z,19.5
2018-04-02T04:05:06.844Z,19.5
2018-04-02T04:05:56.570Z,19.5
2018-04-02T04:06:47.473Z,19.5
2018-04-02T04:07:36.712Z,19.5
2018-04-02T04:08:26.090Z,19.4
2018-04-02T04:09:16.230Z,19.5
2018-04-02T04:10:06.971Z,19.5
2018-04-02T04:10:56.836Z,19.4
2018-04-02T04:11:47.022Z,19.4
2018-04-02T04:12:37.376Z,19.4
2018-04-02T04:13:26.834Z,19.4
2018-04-02T04:14:17.789Z,19.4
2018-04-02T04:15:07.164Z,19.4
2018-04-02T04:15:57.129Z,19.4
2018-04-02T04:16:47.361Z,19.4
2018-04-02T04:17:37.739Z,19.4
2018-04-02T04:18:27.783Z,19.4
2018-04-02T04:19:17.842Z,19.4
2018-04-02T04:20:07.134Z,19.4
2018-04-02T04:20:57.074Z,19.4
2018-04-02T04:21:46.959Z,19.4
2018-04-02T04:22:37.310Z,19.4
2018-04-02T04:23:27.286Z,19.4
2018-04-02T04:24:17.243Z,19.4
2018-04-02T04:25:07.466Z,19.4
2018-04-02T04:25:57.363Z,19.4
2018-04-02T04:26:47.820Z,19.4
2018-04-02T04:27:38.511Z,19.4
2018-04-02T04:28:27.921Z,19.4
2018-04-02T04:29:18.004Z,19.4
2018-04-02T04:30:08.335Z,19.4
2018-04-02T04:30:58.211Z,19.4
2018-04-02T04:31:48.653Z,19.4
2018-04-02T04:32:38.748Z,19.5
2018-04-02T04:33:27.998Z,19.5
2018-04-02T04:34:18.231Z,19.5
2018-04-02T04:35:07.820Z,19.4
2018-04-02T04:35:58.688Z,19.4
2018-04-02T04:36:48.505Z,19.5
2018-04-02T04:37:37.892Z,19.4
2018-04-02T04:38:28.765Z,19.5
2018-04-02T04:39:18.488Z,19.4
2018-04-02T04:40:08.791Z,19.4
2018-04-02T04:40:58.739Z,19.4
2018-04-02T04:41:48.605Z,19.4
2018-04-02T04:42:39.239Z,19.4
2018-04-02T04:43:28.530Z,19.4
2018-04-02T04:44:19.141Z,19.4
2018-04-02T04:45:08.572Z,19.4
2018-04-02T04:45:59.872Z,19.4
2018-04-02T04:46:48.759Z,19.4
2018-04-02T04:47:39.429Z,19.4
2018-04-02T04:48:29.282Z,19.4
2018-04-02T04:49:20.055Z,19.4
2018-04-02T04:50:09.287Z,19.4
2018-04-02T04:50:59.536Z,19.4
2018-04-02T04:51:49.977Z,19.4
2018-04-02T04:52:39.849Z,19.4
2018-04-02T04:53:30.161Z,19.4
2018-04-02T04:54:19.784Z,19.4
2018-04-02T04:55:09.767Z,19.4
2018-04-02T04:56:00.524Z,19.4
2018-04-02T04:56:49.877Z,19.4
2018-04-02T04:57:40.254Z,19.4
2018-04-02T04:58:29.604Z,19.4
2018-04-02T04:59:20.591Z,19.4
2018-04-02T05:00:10.416Z,19.4
2018-04-02T05:01:00.286Z,19.4
2018-04-02T05:01:50.641Z,19.4
2018-04-02T05:02:40.091Z,19.4
2018-04-02T05:03:30.474Z,19.4
2018-04-02T05:04:20.553Z,19.4
2018-04-02T05:05:11.460Z,19.4
2018-04-02T05:06:00.998Z,19.4
2018-04-02T05:06:50.990Z,19.4
2018-04-02T05:07:41.655Z,19.4
2018-04-02T05:08:30.545Z,19.4
2018-04-02T05:09:21.737Z,19.4
2018-04-02T05:10:11.346Z,19.4
2018-04-02T05:11:00.810Z,19.4
2018-04-02T05:11:50.577Z,19.4
2018-04-02T05:12:41.852Z,19.4
2018-04-02T05:13:30.974Z,19.4
2018-04-02T05:14:21.663Z,19.4
2018-04-02T05:15:10.503Z,19.4
2018-04-02T05:16:01.241Z,19.4
2018-04-02T05:16:51.345Z,19.4
2018-04-02T05:17:41.240Z,19.4
2018-04-02T05:18:31.879Z,19.4
2018-04-02T05:19:22.001Z,19.4
2018-04-02T05:20:12.649Z,19.4
2018-04-02T05:21:02.033Z,19.3
2018-04-02T05:21:52.096Z,19.3
2018-04-02T05:22:41.896Z,19.3
2018-04-02T05:23:31.716Z,19.3
2018-04-02T05:24:22.292Z,19.3
2018-04-02T05:25:12.327Z,19.3
2018-04-02T05:26:01.574Z,19.3
2018-04-02T05:26:52.147Z,19.3
2018-04-02T05:27:43.324Z,19.4
2018-04-02T05:28:32.860Z,19.3
2018-04-02T05:29:23.187Z,19.3
2018-04-02T05:30:13.541Z,19.3
2018-04-02T05:31:03.261Z,19.3
2018-04-02T05:31:53.636Z,19.3
2018-04-02T05:32:43.167Z,19.3
2018-04-02T05:33:33.219Z,19.3
2018-04-02T05:34:23.873Z,19.3
2018-04-02T05:35:13.618Z,19.3
2018-04-02T05:36:03.707Z,19.3
2018-04-02T05:36:54.044Z,19.3
2018-04-02T05:37:42.666Z,19.3
2018-04-02T05:38:34.158Z,19.3
2018-04-02T05:39:23.148Z,19.3
2018-04-02T05:40:13.318Z,19.3
2018-04-02T05:41:02.575Z,19.3
2018-04-02T05:41:52.984Z,19.3
2018-04-02T05:42:43.385Z,19.3
2018-04-02T05:43:33.641Z,19.3
2018-04-02T05:44:24.299Z,19.3
2018-04-02T05:45:13.287Z,19.3
2018-04-02T05:46:03.754Z,19.3
2018-04-02T05:46:53.714Z,19.3
2018-04-02T05:47:43.171Z,19.3
2018-04-02T05:48:33.318Z,19.3
2018-04-02T05:49:24.055Z,19.3
2018-04-02T05:50:14.127Z,19.2
2018-04-02T05:51:03.619Z,19.2
2018-04-02T05:51:54.625Z,19.2
2018-04-02T05:52:43.309Z,19.2
2018-04-02T05:53:34.281Z,19.2
2018-04-02T05:54:23.926Z,19.1
2018-04-02T05:55:14.189Z,19.1
2018-04-02T05:56:03.882Z,19.1
2018-04-02T05:56:54.740Z,19.1
2018-04-02T05:57:44.184Z,19.1
2018-04-02T05:58:34.356Z,19.1
2018-04-02T05:59:25.382Z,19.1
2018-04-02T06:00:14.474Z,19.1
2018-04-02T06:01:04.432Z,19.1
2018-04-02T06:01:55.085Z,19.1
2018-04-02T06:02:44.939Z,19.1
2018-04-02T06:03:34.699Z,19.1
2018-04-02T06:04:25.351Z,19.1
2018-04-02T06:05:15.421Z,19.1
2018-04-02T06:06:04.804Z,19.1
2018-04-02T06:06:55.423Z,19.1
2018-04-02T06:07:44.988Z,19.1
2018-04-02T06:08:34.891Z,19.1
2018-04-02T06:09:25.043Z,19.1
2018-04-02T06:10:15.378Z,19.1
2018-04-02T06:11:05.632Z,19.1
2018-04-02T06:11:55.017Z,19.1
2018-04-02T06:12:44.994Z,19.1
2018-04-02T06:13:35.548Z,19.1
2018-04-02T06:14:25.783Z,19.1
2018-04-02T06:15:15.845Z,19.1
2018-04-02T06:16:05.388Z,19.1
2018-04-02T06:16:56.204Z,19.1
2018-04-02T06:17:45.836Z,19.1
2018-04-02T06:18:36.493Z,19.1
2018-04-02T06:19:25.816Z,19.1
2018-04-02T06:20:15.302Z,19.1
2018-04-02T06:21:06.450Z,19.1
2018-04-02T06:21:56.427Z,19.1
2018-04-02T06:22:45.999Z,19.1
2018-04-02T06:23:36.535Z,19.1
2018-04-02T06:24:27.485Z,19.2
2018-04-02T06:25:17.304Z,19.1
2018-04-02T06:26:06.272Z,19.1
2018-04-02T06:26:56.185Z,19.2
2018-04-02T06:27:46.743Z,19.1
2018-04-02T06:28:37.090Z,19.1
2018-04-02T06:29:26.573Z,19.1
2018-04-02T06:30:16.818Z,19.2
2018-04-02T06:31:07.566Z,19.1
2018-04-02T06:31:57.047Z,19.1
2018-04-02T06:32:46.319Z,19.1
2018-04-02T06:33:36.866Z,19.1
2018-04-02T06:34:27.117Z,19.1
2018-04-02T06:35:17.219Z,19.1
2018-04-02T06:36:07.143Z,19.1
2018-04-02T06:36:57.427Z,19.1
2018-04-02T06:37:47.954Z,19.1
2018-04-02T06:38:37.424Z,19.1
2018-04-02T06:39:26.917Z,19.1
2018-04-02T06:40:17.454Z,19.1
2018-04-02T06:41:06.624Z,19.1
2018-04-02T06:41:57.689Z,19.1
2018-04-02T06:42:47.784Z,19.1
2018-04-02T06:43:37.435Z,19.1
2018-04-02T06:44:28.264Z,19.1
2018-04-02T06:45:17.687Z,19.1
2018-04-02T06:46:08.256Z,19.1
2018-04-02T06:46:58.238Z,19.1
2018-04-02T06:47:47.805Z,19.1
2018-04-02T06:48:38.742Z,19.1
2018-04-02T06:49:28.401Z,19.1
2018-04-02T06:50:18.855Z,19.1
2018-04-02T06:51:08.539Z,19.1
2018-04-02T06:51:58.691Z,19.1
2018-04-02T06:52:48.742Z,19.1
2018-04-02T06:53:38.014Z,19.1
2018-04-02T06:54:28.978Z,19.1
2018-04-02T06:55:19.098Z,19.1
2018-04-02T06:56:08.899Z,19.1
2018-04-02T06:56:58.763Z,19.1
2018-04-02T06:57:49.315Z,19.1
2018-04-02T06:58:38.675Z,19.1
2018-04-02T06:59:28.955Z,19.1
2018-04-02T07:00:18.906Z,19.1
2018-04-02T07:01:09.126Z,19.1
2018-04-02T07:01:59.023Z,19.1
2018-04-02T07:02:49.044Z,19.1
2018-04-02T07:03:38.120Z,19.1
2018-04-02T07:04:29.471Z,19.1
2018-04-02T07:05:20.008Z,19.1
2018-04-02T07:06:09.400Z,19.1
2018-04-02T07:06:59.075Z,19.1
2018-04-02T07:07:49.684Z,19.1
2018-04-02T07:08:39.120Z,19.1
2018-04-02T07:09:29.345Z,19.1
2018-04-02T07:10:20.589Z,19.1
2018-04-02T07:11:09.284Z,19.1
2018-04-02T07:11:59.932Z,19.1
2018-04-02T07:12:49.494Z,19.1
2018-04-02T07:13:39.343Z,19.1
2018-04-02T07:14:30.387Z,19.1
2018-04-02T07:15:20.582Z,19.1
2018-04-02T07:16:09.947Z,19.1
2018-04-02T07:16:59.724Z,19.1
2018-04-02T07:17:50.862Z,19.1
2018-04-02T07:18:40.387Z,19.1
2018-04-02T07:19:30.154Z,19.1
2018-04-02T07:20:20.141Z,19.1
2018-04-02T07:21:10.031Z,19.1
2018-04-02T07:22:00.163Z,19.1
2018-04-02T07:22:50.013Z,19.1
2018-04-02T07:23:41.044Z,19.1
2018-04-02T07:24:30.824Z,19.1
2018-04-02T07:25:21.006Z,19.1
2018-04-02T07:26:10.251Z,19.1
2018-04-02T07:27:00.900Z,19.1
2018-04-02T07:27:50.300Z,19.1
2018-04-02T07:28:41.324Z,19.1
2018-04-02T07:29:31.390Z,19.1
2018-04-02T07:30:20.196Z,19
2018-04-02T07:31:11.221Z,19
2018-04-02T07:32:01.237Z,19.1
2018-04-02T07:32:51.715Z,19.1
2018-04-02T07:33:41.068Z,19.1
2018-04-02T07:34:31.147Z,19.1
2018-04-02T07:35:21.130Z,19
2018-04-02T07:36:11.894Z,19
2018-04-02T07:37:01.340Z,19.1
2018-04-02T07:37:51.513Z,19
2018-04-02T07:38:42.526Z,19
2018-04-02T07:39:32.395Z,19
2018-04-02T07:40:21.775Z,19
2018-04-02T07:41:11.240Z,19
2018-04-02T07:42:02.281Z,19
2018-04-02T07:43:42.096Z,20.6
2018-04-02T07:44:32.380Z,24.4
2018-04-02T07:45:22.930Z,26.1
2018-04-02T07:46:11.804Z,26.1
2018-04-02T07:47:02.452Z,24.6
2018-04-02T07:47:52.200Z,23.6
2018-04-02T07:48:42.977Z,23.8
2018-04-02T07:49:32.821Z,24.6
2018-04-02T07:50:23.133Z,25.6
2018-04-02T07:51:12.565Z,26.1
2018-04-02T07:52:02.398Z,26.3
2018-04-02T07:52:52.456Z,26.1
2018-04-02T07:53:42.906Z,25.9
2018-04-02T07:54:33.369Z,25.8
2018-04-02T07:55:23.148Z,25.8
2018-04-02T07:56:12.940Z,26.1
2018-04-02T07:57:03.581Z,26.8
2018-04-02T07:57:53.010Z,27.4
2018-04-02T07:58:42.989Z,27.6
2018-04-02T07:59:33.562Z,27.6
2018-04-02T08:00:23.287Z,27.4
2018-04-02T08:01:13.383Z,27.2
2018-04-02T08:02:03.527Z,27.2
2018-04-02T08:02:53.785Z,27.5
2018-04-02T08:03:44.229Z,28.1
2018-04-02T08:04:33.214Z,28.7
2018-04-02T08:05:23.659Z,29.1
2018-04-02T08:06:13.501Z,28.9
2018-04-02T08:07:03.599Z,28.7
2018-04-02T08:07:53.924Z,28.6
2018-04-02T08:08:44.326Z,28.6
2018-04-02T08:09:33.854Z,28.7
2018-04-02T08:10:23.817Z,28.6
2018-04-02T08:11:15.015Z,28.8
2018-04-02T08:12:04.224Z,29.3
2018-04-02T08:12:53.720Z,29.7
2018-04-02T08:13:44.105Z,30.2
2018-04-02T08:14:34.323Z,30.4
2018-04-02T08:15:24.579Z,30.4
2018-04-02T08:16:14.631Z,30
2018-04-02T08:17:03.841Z,29.8
2018-04-02T08:17:55.780Z,29.9
2018-04-02T08:18:44.321Z,30.6
2018-04-02T08:19:34.620Z,31.3
2018-04-02T08:20:25.230Z,31.9
2018-04-02T08:21:15.119Z,32.4
2018-04-02T08:22:05.332Z,32.4
2018-04-02T08:22:55.697Z,32.3
2018-04-02T08:23:45.003Z,32.3
2018-04-02T08:24:35.047Z,32.4
2018-04-02T08:25:25.103Z,32.5
2018-04-02T08:26:15.211Z,32.8
2018-04-02T08:27:05.434Z,33.1
2018-04-02T08:27:54.800Z,33.1
2018-04-02T08:28:44.872Z,32.9
2018-04-02T08:29:35.919Z,32.5
2018-04-02T08:30:25.296Z,32.2
2018-04-02T08:31:15.652Z,32
2018-04-02T08:32:05.679Z,31.9
2018-04-02T08:32:56.421Z,31.9
2018-04-02T08:33:46.319Z,31.9
2018-04-02T08:34:34.997Z,31.8
2018-04-02T08:35:25.759Z,31.7
2018-04-02T08:36:16.414Z,31.6
2018-04-02T08:37:06.227Z,31.4
2018-04-02T08:37:56.554Z,31.3
2018-04-02T08:38:46.046Z,31.3
2018-04-02T08:39:35.966Z,31.2
2018-04-02T08:40:26.504Z,31.3
2018-04-02T08:41:16.302Z,31.4
2018-04-02T08:42:06.129Z,31.4
2018-04-02T08:42:56.419Z,31.4
2018-04-02T08:43:46.066Z,31.5
2018-04-02T08:44:35.821Z,31.9
2018-04-02T08:45:26.954Z,32.7
2018-04-02T08:46:17.433Z,33.6
2018-04-02T08:47:06.660Z,34.3
2018-04-02T08:47:56.753Z,34.4
2018-04-02T08:48:47.103Z,34.1
2018-04-02T08:49:37.178Z,33.8
2018-04-02T08:50:27.040Z,33.7
2018-04-02T08:51:17.147Z,33.6
2018-04-02T08:52:06.072Z,33.7
2018-04-02T08:52:57.256Z,33.8
2018-04-02T08:53:46.878Z,33.9
2018-04-02T08:54:36.262Z,34.1
2018-04-02T08:55:27.215Z,34.3
2018-04-02T08:56:17.682Z,34.3
2018-04-02T08:57:08.208Z,34.4
2018-04-02T08:57:57.711Z,34.4
2018-04-02T08:58:47.448Z,34.8
2018-04-02T08:59:38.133Z,35.3
2018-04-02T09:00:27.410Z,35.9
2018-04-02T09:01:17.927Z,36.1
2018-04-02T09:02:07.592Z,35.8
2018-04-02T09:02:57.365Z,35.4
2018-04-02T09:03:47.916Z,35.4
2018-04-02T09:04:37.970Z,35.9
2018-04-02T09:05:28.560Z,36.6
2018-04-02T09:06:18.142Z,37.2
2018-04-02T09:07:08.733Z,37.6
2018-04-02T09:07:58.712Z,37.9
2018-04-02T09:08:48.495Z,38.1
2018-04-02T09:09:37.854Z,38.3
2018-04-02T09:10:28.317Z,38.4
2018-04-02T09:11:17.971Z,38.7
2018-04-02T09:12:08.749Z,38.9
2018-04-02T09:12:58.907Z,39.2
2018-04-02T09:13:48.842Z,39.4
2018-04-02T09:14:37.637Z,39.7
2018-04-02T09:15:29.349Z,39.9
2018-04-02T09:16:19.060Z,40.1
2018-04-02T09:17:08.702Z,40.3
2018-04-02T09:17:59.268Z,40.5
2018-04-02T09:18:48.812Z,40.6
2018-04-02T09:19:39.186Z,40.7
2018-04-02T09:20:29.732Z,40.4
2018-04-02T09:21:19.479Z,40
2018-04-02T09:22:09.187Z,39.8
2018-04-02T09:22:59.158Z,39.9
2018-04-02T09:23:49.679Z,40.1
2018-04-02T09:24:39.436Z,40.3
2018-04-02T09:25:29.068Z,40.7
2018-04-02T09:26:20.704Z,41
2018-04-02T09:27:09.241Z,41.1
2018-04-02T09:27:58.149Z,40.7
2018-04-02T09:28:48.674Z,40.3
2018-04-02T09:29:39.831Z,39.9
2018-04-02T09:30:29.283Z,39.8
2018-04-02T09:31:19.964Z,39.8
2018-04-02T09:32:09.716Z,39.8
2018-04-02T09:33:00.288Z,39.9
2018-04-02T09:33:50.113Z,39.8
2018-04-02T09:34:40.795Z,39.6
2018-04-02T09:35:29.866Z,39.4
2018-04-02T09:36:20.590Z,39.2
2018-04-02T09:37:10.380Z,39
2018-04-02T09:38:00.616Z,38.9
2018-04-02T09:38:50.970Z,38.8
2018-04-02T09:39:40.556Z,38.7
2018-04-02T09:40:30.504Z,38.6
2018-04-02T09:41:20.490Z,38.5
2018-04-02T09:42:11.569Z,38.4
2018-04-02T09:43:01.592Z,38.3
2018-04-02T09:43:51.926Z,38.3
2018-04-02T09:44:41.732Z,38.4
2018-04-02T09:45:31.252Z,39
2018-04-02T09:46:21.500Z,39.8
2018-04-02T09:47:12.159Z,40.7
2018-04-02T09:48:02.243Z,41.3
2018-04-02T09:48:52.290Z,41.8
2018-04-02T09:49:42.085Z,42.1
2018-04-02T09:50:32.119Z,42.3
2018-04-02T09:51:22.202Z,42.3
2018-04-02T09:52:12.534Z,41.9
2018-04-02T09:53:02.299Z,41.5
2018-04-02T09:53:52.389Z,41.1
2018-04-02T09:54:42.717Z,40.9
2018-04-02T09:55:32.209Z,40.8
2018-04-02T09:56:22.545Z,40.6
2018-04-02T09:57:12.899Z,40.5
2018-04-02T09:58:02.966Z,40.3
2018-04-02T09:58:53.019Z,40.2
2018-04-02T09:59:42.566Z,40.1
2018-04-02T10:00:33.142Z,39.9
2018-04-02T10:01:23.183Z,39.8
2018-04-02T10:02:12.985Z,39.8
2018-04-02T10:03:02.752Z,39.7
2018-04-02T10:03:53.083Z,39.4
2018-04-02T10:04:44.902Z,39.1
2018-04-02T10:05:33.198Z,39.1
2018-04-02T10:06:24.166Z,39.1
2018-04-02T10:07:13.360Z,39.2
2018-04-02T10:08:03.429Z,39.2
2018-04-02T10:08:53.447Z,39.1
2018-04-02T10:09:42.995Z,39
2018-04-02T10:10:33.583Z,38.9
2018-04-02T10:11:23.925Z,38.8
2018-04-02T10:12:13.703Z,38.7
2018-04-02T10:13:03.785Z,38.6
2018-04-02T10:13:53.890Z,38.7
2018-04-02T10:14:43.938Z,38.7
2018-04-02T10:15:33.778Z,38.8
2018-04-02T10:16:24.055Z,39.3
2018-04-02T10:17:14.358Z,40.1
2018-04-02T10:18:04.175Z,40.9
2018-04-02T10:18:54.198Z,41.2
2018-04-02T10:19:43.688Z,41
2018-04-02T10:20:33.861Z,40.7
2018-04-02T10:21:23.905Z,40.4
2018-04-02T10:22:13.632Z,40.3
2018-04-02T10:23:04.144Z,40.3
2018-04-02T10:23:54.837Z,40.3
2018-04-02T10:24:44.159Z,40.3
2018-04-02T10:25:33.856Z,40.3
2018-04-02T10:26:24.222Z,40.4
2018-04-02T10:27:13.584Z,40.4
2018-04-02T10:28:04.153Z,40.3
2018-04-02T10:28:54.083Z,40.1
2018-04-02T10:29:44.796Z,40
2018-04-02T10:30:33.514Z,39.9
2018-04-02T10:31:25.180Z,40
2018-04-02T10:32:13.950Z,40.4
2018-04-02T10:33:04.849Z,41.3
2018-04-02T10:33:54.743Z,41.9
2018-04-02T10:34:44.897Z,42.1
2018-04-02T10:35:33.999Z,41.8
2018-04-02T10:36:23.564Z,41.3
2018-04-02T10:37:14.779Z,40.9
2018-04-02T10:38:04.469Z,40.7
2018-04-02T10:38:54.919Z,40.8
2018-04-02T10:39:44.752Z,40.7
2018-04-02T10:40:35.140Z,40.4
2018-04-02T10:41:25.276Z,40.3
2018-04-02T10:42:15.149Z,40.6
2018-04-02T10:43:05.430Z,41.1
2018-04-02T10:43:55.376Z,41.3
2018-04-02T10:44:45.332Z,41.3
2018-04-02T10:45:34.024Z,41
2018-04-02T10:46:25.757Z,40.7
2018-04-02T10:47:15.125Z,40.6
2018-04-02T10:48:05.799Z,40.4
2018-04-02T10:48:55.817Z,38.8
2018-04-02T10:49:44.917Z,37.1
2018-04-02T10:50:35.359Z,36.4
2018-04-02T10:51:26.255Z,35.7
2018-04-02T10:52:16.367Z,34.8
2018-04-02T10:53:05.959Z,33.7
2018-04-02T10:53:55.799Z,32.6
2018-04-02T10:54:45.979Z,31.5
2018-04-02T10:55:35.483Z,31.2
2018-04-02T10:56:26.389Z,31.1
2018-04-02T10:57:15.598Z,31.1
2018-04-02T10:58:05.343Z,31.1
2018-04-02T10:58:56.578Z,31
2018-04-02T10:59:47.402Z,30.9
2018-04-02T11:00:35.810Z,30.9
2018-04-02T11:01:26.573Z,30.9
2018-04-02T11:02:16.563Z,31
2018-04-02T11:03:07.006Z,31.1
2018-04-02T11:03:57.218Z,31.1
2018-04-02T11:04:47.115Z,31.2
2018-04-02T11:05:37.068Z,31.1
2018-04-02T11:06:26.573Z,31.2
2018-04-02T11:07:17.003Z,31.1
2018-04-02T11:08:07.545Z,31.1
2018-04-02T11:08:56.567Z,31.3
2018-04-02T11:09:46.903Z,31.4